Date,TemperatureHighF,TemperatureAvgF,TemperatureLowF,DewpointHighF,DewpointAvgF,DewpointLowF,HumidityHigh,HumidityAvg,HumidityLow,PressureMaxIn,PressureMinIn,WindSpeedMaxMPH,WindSpeedAvgMPH,GustSpeedMaxMPH,PrecipitationSumIn
2013-1-1,49,47,44,48,38,26,95,75,44,30.10,29.92,9,3,20,0.21
2013-1-2,49,44,40,47,37,29,96,77,58,30.19,29.93,8,2,16,0.15
2013-1-3,42,38,32,30,27,24,83,64,56,30.28,30.15,3,1,7,0.00
2013-1-4,49,38,29,25,20,16,72,48,27,30.33,30.21,9,2,16,0.00
2013-1-5,50,40,28,28,20,18,71,48,28,30.40,30.24,1,0,10,0.00
2013-1-6,52,44,40,36,33,28,81,65,50,30.22,30.05,0,0,12,0.02
2013-1-7,51,41,34,29,27,25,74,58,40,30.43,30.20,5,0,12,0.00
2013-1-8,56,44,31,40,34,26,85,69,50,30.48,30.37,3,0,7,0.00
2013-1-9,63,53,41,50,44,36,85,72,57,30.45,30.35,7,1,14,0.00
2013-1-10,60,55,51,49,38,26,86,58,27,30.52,30.40,6,1,12,0.00
2013-1-11,51,44,40,45,41,38,96,90,64,30.39,30.17,8,2,12,0.15
2013-1-12,66,56,46,59,53,45,97,91,79,30.17,30.08,7,1,12,0.00
2013-1-13,73,64,56,59,57,55,95,80,59,30.12,30.02,17,2,24,0.01
2013-1-14,64,61,54,62,59,53,96,92,82,30.16,30.05,10,3,15,0.78
2013-1-15,53,43,40,52,42,39,97,95,92,30.23,30.09,10,4,22,0.16
2013-1-16,50,44,38,48,43,38,96,96,95,30.09,29.96,5,1,12,0.30
2013-1-17,49,42,33,48,41,31,98,95,92,30.19,29.90,17,5,30,1.37
2013-1-18,42,35,29,32,28,22,96,78,44,30.55,30.17,0,0,1,0.54
2013-1-19,51,40,29,28,26,23,88,59,35,30.51,30.15,5,0,13,0.00
2013-1-20,60,47,37,33,28,24,67,48,27,30.15,30.00,13,1,20,0.00
2013-1-21,58,44,32,32,24,10,86,48,25,30.08,29.87,14,3,25,0.00
2013-1-22,40,32,25,11,0,-7,41,25,15,30.29,29.97,8,1,18,0.00
2013-1-23,42,30,19,16,7,-4,57,38,26,30.38,30.05,7,1,18,0.00
2013-1-24,37,31,24,24,9,-3,72,42,22,30.51,29.97,14,2,26,0.00
2013-1-25,25,23,22,23,11,-2,90,61,32,30.53,30.14,6,1,12,0.00
2013-1-26,40,31,25,31,26,23,93,83,63,30.41,30.11,3,0,7,0.10
2013-1-27,41,34,26,26,23,18,79,65,54,30.60,30.42,7,2,12,0.00
2013-1-28,49,42,33,44,34,26,89,75,58,30.49,30.23,9,3,20,0.04
2013-1-29,72,58,45,56,50,43,96,77,53,30.24,30.02,10,4,20,0.00
2013-1-30,72,66,58,63,59,54,91,81,61,30.02,29.37,21,10,38,0.75
2013-1-31,57,44,37,54,24,14,88,49,28,30.00,29.43,20,10,39,0.02
2013-2-1,41,33,24,26,8,-3,60,37,19,30.40,29.87,13,3,25,0.00
2013-2-2,41,32,21,34,11,4,87,43,25,30.41,30.04,10,2,24,0.03
2013-2-3,49,40,34,34,26,19,91,62,35,30.04,29.85,8,2,24,0.01
2013-2-4,49,39,30,26,20,16,66,48,30,30.16,30.00,5,0,15,0.00
2013-2-5,60,47,38,33,29,25,65,51,32,30.00,29.88,8,1,20,0.00
2013-2-6,60,48,38,32,25,17,75,45,19,30.26,29.97,5,1,14,0.00
2013-2-7,43,39,35,36,32,24,94,77,46,30.34,30.05,10,4,20,0.59
2013-2-8,57,43,35,44,34,26,95,74,36,30.08,29.84,13,4,24,0.18
2013-2-9,54,42,33,26,18,12,63,41,19,30.36,30.07,2,0,15,0.00
2013-2-10,52,42,30,38,20,15,79,45,24,30.49,30.19,8,1,15,0.11
2013-2-11,56,50,43,55,48,37,98,92,76,30.19,29.94,10,3,17,0.07
2013-2-12,58,52,44,51,29,20,92,46,23,30.09,29.91,9,2,18,0.00
2013-2-13,51,44,40,44,40,32,95,86,54,29.96,29.64,9,2,20,0.22
2013-2-14,52,42,31,32,29,24,87,61,34,30.07,29.85,10,2,17,0.00
2013-2-15,60,48,37,37,30,24,84,55,25,30.09,29.92,9,3,18,0.00
2013-2-16,43,36,29,33,27,12,90,73,48,29.97,29.84,6,1,14,0.06
2013-2-17,38,30,24,14,6,0,56,38,21,30.28,29.96,14,3,30,0.00
2013-2-18,53,38,20,23,15,9,72,43,24,30.40,30.20,10,2,23,0.00
2013-2-19,46,40,36,42,32,18,94,74,41,30.22,29.86,13,4,26,0.17
2013-2-20,53,42,28,19,10,2,65,30,12,30.14,29.99,10,2,18,0.00
2013-2-21,55,42,27,16,12,8,56,32,16,30.24,30.11,8,1,13,0.00
2013-2-22,44,35,32,33,31,17,94,86,33,30.32,30.14,8,2,14,0.30
2013-2-23,44,38,34,41,37,33,95,94,90,30.15,29.83,7,1,12,0.14
2013-2-24,62,50,40,43,31,20,96,57,23,30.03,29.81,12,2,20,0.01
2013-2-25,44,38,33,24,21,19,65,51,40,30.23,30.03,7,1,14,0.00
2013-2-26,41,36,32,40,33,21,96,87,56,30.15,29.60,9,3,20,0.77
2013-2-27,56,46,38,38,36,31,96,70,41,29.79,29.64,12,4,24,0.00
2013-2-28,48,43,37,37,26,20,71,52,35,29.87,29.69,14,3,24,0.00
2013-3-1,44,41,38,27,25,23,64,54,44,29.92,29.84,7,1,17,0.00
2013-3-2,45,38,32,25,22,16,72,53,40,29.94,29.82,7,1,14,0.00
2013-3-3,44,35,28,18,15,11,59,45,31,30.00,29.87,9,2,20,0.00
2013-3-4,53,39,25,14,11,6,61,34,15,30.14,29.99,10,2,20,0.00
2013-3-5,45,43,40,42,31,14,95,67,31,30.05,29.59,12,2,21,0.31
2013-3-6,47,40,36,40,27,21,95,63,40,30.09,29.57,17,4,31,0.06
2013-3-7,52,41,35,27,25,23,69,54,35,30.27,30.08,14,2,18,0.00
2013-3-8,55,43,32,24,21,17,67,44,23,30.31,30.18,9,2,22,0.00
2013-3-9,62,48,33,31,26,22,67,44,26,30.35,30.23,8,1,13,0.00
2013-3-10,67,53,38,31,28,22,68,41,22,30.30,30.18,9,2,16,0.00
2013-3-11,66,56,44,53,39,21,82,56,28,30.20,29.88,15,5,23,0.02
2013-3-12,66,58,46,58,46,26,96,69,27,29.97,29.71,14,4,28,0.78
2013-3-13,53,44,35,31,23,15,72,45,24,30.16,29.97,15,2,28,0.00
2013-3-14,52,40,30,15,13,10,50,34,19,30.27,30.14,10,1,21,0.00
2013-3-15,63,49,32,34,24,13,62,38,27,30.18,29.88,12,2,31,0.00
2013-3-16,77,65,50,54,42,34,67,46,27,29.88,29.63,18,4,33,0.01
2013-3-17,64,61,59,51,50,49,70,67,62,29.84,29.81,0,0,0,0.00
2013-3-25,44,41,37,22,20,18,53,43,35,29.83,29.63,14,7,31,0.00
2013-3-26,46,40,34,24,23,21,66,52,37,30.15,29.83,10,2,20,0.00
2013-3-27,50,41,34,24,20,16,66,46,27,30.25,30.14,9,2,22,0.00
2013-3-28,55,43,32,23,20,17,61,41,23,30.30,30.17,9,2,24,0.00
2013-3-29,59,48,33,30,22,18,64,39,20,30.34,30.17,8,1,20,0.00
2013-3-30,67,55,43,39,29,21,57,38,23,30.23,30.06,8,2,13,0.00
2013-3-31,66,56,49,54,49,39,94,80,55,30.07,29.79,13,4,21,0.70
2013-4-1,70,59,50,53,42,33,93,60,27,29.96,29.81,16,3,25,0.01
2013-4-2,60,50,37,33,22,14,68,38,16,30.16,29.96,12,0,21,0.00
2013-4-3,61,50,39,18,14,11,37,24,16,30.29,30.13,6,1,17,0.00
2013-4-4,50,40,36,34,25,9,94,60,21,30.34,29.98,14,4,21,0.76
2013-4-5,67,50,35,45,36,25,96,66,22,30.02,29.89,7,1,15,0.01
2013-4-6,67,55,45,35,29,25,62,40,22,30.25,30.02,9,1,15,0.00
2013-4-7,71,58,44,45,38,29,77,49,28,30.25,30.08,15,3,27,0.00
2013-4-8,79,66,54,53,49,45,85,56,33,30.14,30.02,16,4,24,0.00
2013-4-9,85,72,58,55,52,46,83,52,27,30.16,30.03,13,3,22,0.00
2013-4-10,87,76,64,57,55,50,74,50,29,30.07,29.91,13,4,24,0.00
2013-4-11,81,71,61,63,58,55,86,64,41,29.95,29.74,10,5,25,0.00
2013-4-12,83,72,62,64,55,34,92,59,28,29.76,29.56,13,5,36,0.24
2013-4-13,75,64,49,40,34,29,62,35,20,29.99,29.76,9,1,16,0.00
2013-4-14,79,67,50,51,35,28,61,35,16,30.07,29.98,10,2,18,0.00
2013-4-15,68,61,55,56,54,48,93,77,57,30.19,29.99,8,2,14,0.07
2013-4-16,80,68,59,60,57,55,92,69,43,30.27,30.16,7,1,15,0.00
2013-4-17,84,71,60,61,57,53,86,63,35,30.20,30.08,9,1,14,0.00
2013-4-18,80,72,64,62,57,52,81,62,39,30.15,29.99,12,5,20,0.00
2013-4-19,77,68,60,67,62,51,92,81,66,29.99,29.69,15,6,31,0.47
2013-4-20,66,55,44,50,31,25,70,41,22,30.27,29.82,6,1,17,0.00
2013-4-21,60,52,44,37,31,28,61,46,35,30.49,30.27,12,4,21,0.00
2013-4-22,61,51,38,38,30,20,84,50,23,30.45,30.26,10,4,20,0.00
2013-4-23,72,57,46,51,44,38,86,63,39,30.28,30.10,7,2,14,0.01
2013-4-24,75,63,52,54,52,49,91,68,42,30.12,29.96,17,4,33,0.00
2013-4-25,71,61,49,56,36,24,73,43,18,30.28,29.99,7,1,14,0.00
2013-4-26,71,60,48,40,30,25,47,32,20,30.42,30.27,8,1,14,0.00
2013-4-27,68,62,56,50,44,36,72,52,42,30.34,30.24,8,2,14,0.00
2013-4-28,59,56,53,54,51,49,96,87,73,30.24,30.06,7,2,13,1.16
2013-4-29,70,61,55,60,57,54,96,88,65,30.06,29.95,5,0,10,0.23
2013-4-30,66,60,56,57,55,53,95,84,66,30.19,30.00,7,2,12,0.00
2013-5-1,63,58,56,56,54,52,93,86,75,30.32,30.17,9,4,17,0.01
2013-5-2,60,57,54,55,52,48,88,83,79,30.33,30.26,7,3,20,0.00
2013-5-3,66,58,50,52,47,41,90,70,48,30.27,30.16,13,5,25,0.00
2013-5-4,60,53,47,52,45,41,92,75,57,30.20,30.07,13,6,23,0.02
2013-5-5,56,52,47,53,48,43,94,86,77,30.09,29.96,12,7,22,0.08
2013-5-6,66,58,54,61,56,53,96,93,78,29.98,29.81,12,4,21,1.70
2013-5-7,70,60,55,59,53,44,96,80,40,29.94,29.84,10,1,20,0.01
2013-5-8,70,60,54,59,54,51,92,79,56,30.00,29.91,8,1,15,0.28
2013-5-9,83,68,53,58,54,48,95,66,30,30.05,29.97,7,1,14,0.01
2013-5-10,85,73,59,60,56,53,86,58,34,30.05,29.89,12,2,25,0.00
2013-5-11,81,72,64,62,59,56,88,64,43,29.92,29.75,13,4,22,0.04
2013-5-12,72,64,53,60,43,28,91,53,21,30.02,29.79,13,2,23,0.01
2013-5-13,66,57,45,36,30,24,62,38,21,30.17,30.02,10,0,18,0.00
2013-5-14,73,59,41,42,35,30,80,44,24,30.25,30.04,9,2,18,0.00
2013-5-15,90,72,56,59,52,42,70,51,29,30.04,29.88,10,3,22,0.00
2013-5-16,85,76,65,60,56,50,79,52,32,29.97,29.87,8,3,20,0.00
2013-5-17,89,77,64,62,58,53,84,56,31,30.06,29.96,12,1,15,0.00
2013-5-18,76,70,65,65,62,60,92,77,62,30.14,30.04,6,1,13,0.15
2013-5-19,75,69,64,67,64,62,95,87,72,30.12,30.03,8,2,16,0.08
2013-5-20,80,71,67,70,67,64,95,88,62,30.09,30.00,8,1,20,0.40
2013-5-21,90,76,68,69,67,62,96,78,40,30.03,29.90,10,3,18,0.00
2013-5-22,86,76,67,68,65,62,91,72,49,29.99,29.87,13,4,20,0.22
2013-5-23,78,70,63,67,64,60,95,83,62,29.94,29.80,13,2,21,0.32
2013-5-24,71,64,53,61,48,36,93,60,30,30.19,29.82,7,1,20,0.00
2013-5-25,76,61,46,39,34,28,70,41,19,30.28,30.13,9,1,16,0.00
2013-5-26,78,65,55,49,41,34,60,43,24,30.26,30.15,7,0,13,0.00
2013-5-27,82,70,55,54,50,48,82,52,32,30.26,30.12,8,2,16,0.00
2013-5-28,86,74,63,63,61,54,90,65,40,30.22,30.11,12,4,20,0.00
2013-5-29,87,76,65,63,60,57,83,61,36,30.21,30.14,10,3,20,0.00
2013-5-30,88,76,65,63,61,54,90,62,34,30.25,30.16,7,2,15,0.00
2013-5-31,88,77,67,66,63,60,90,64,42,30.19,30.08,10,3,20,0.00
2013-6-1,88,78,69,66,62,57,89,61,35,30.10,29.99,12,4,25,0.00
2013-6-2,84,75,68,68,65,63,92,73,50,30.01,29.88,12,4,21,0.05
2013-6-3,86,72,68,68,66,63,95,84,51,29.94,29.81,9,2,14,0.47
2013-6-4,75,69,66,65,62,59,92,77,60,30.09,29.93,7,2,15,0.00
2013-6-5,74,69,66,66,62,56,88,79,60,30.12,29.99,5,1,10,0.04
2013-6-6,73,69,65,71,67,62,95,92,83,30.01,29.79,9,4,17,0.67
2013-6-7,75,70,68,71,68,66,96,93,82,29.82,29.59,3,0,12,0.50
2013-6-8,85,74,62,68,64,59,96,73,42,30.08,29.80,15,0,24,0.30
2013-6-9,90,77,69,70,67,63,93,74,41,30.13,30.02,20,1,39,0.51
2013-6-10,85,74,70,71,69,66,93,85,57,30.06,29.84,14,5,29,0.69
2013-6-11,85,76,68,68,63,58,93,68,41,29.95,29.88,9,3,18,0.02
2013-6-12,75,74,71,62,62,61,73,67,62,29.95,29.91,5,1,7,0.00
2013-12-20,-200,0,200,-100,-100,-100,0,0,100,0.00,40.00,0,-999,0,0.00